Time;durP1;ratioP1;P1;durP2;ratioP2;P2;SDS_P1;SDS_P2;PMS_P1;PMS_P2;Temp;Humidity;BMP_temperature;BMP_pressure;BME280_temperature;BME280_humidity;BME280_pressure;Samples;Min_cycle;Max_cycle;Signal;HPM_P1;HPM_P2
2023/07/03 00:00:59;;;;;;;9.88;4.20;;;14.30;93.80;;;;;;6193254;22;20443;-89
2023/07/03 00:03:27;;;;;;;18.25;4.93;;;14.30;94.10;;;;;;6195339;23;20027;-92
2023/07/03 00:05:54;;;;;;;16.58;4.78;;;14.20;94.10;;;;;;6194231;23;20426;-91
2023/07/03 00:08:20;;;;;;;16.05;3.95;;;14.50;95.00;;;;;;6195474;23;20044;-92
2023/07/03 00:10:46;;;;;;;16.70;4.43;;;14.20;95.70;;;;;;6194928;23;20024;-90
2023/07/03 00:13:12;;;;;;;15.60;4.82;;;14.80;95.40;;;;;;6219893;23;20015;-93
2023/07/03 00:15:37;;;;;;;13.02;4.43;;;14.30;94.70;;;;;;6196084;23;20121;-91
2023/07/03 00:18:03;;;;;;;20.55;5.32;;;14.20;95.30;;;;;;6197460;23;20150;-92
2023/07/03 00:20:29;;;;;;;16.92;5.40;;;14.10;95.90;;;;;;6195853;23;20054;-91
2023/07/03 00:22:56;;;;;;;16.13;4.97;;;14.60;96.20;;;;;;6197522;23;20016;-92
2023/07/03 00:25:22;;;;;;;15.73;4.68;;;14.20;96.80;;;;;;6197710;23;20016;-92
2023/07/03 00:27:48;;;;;;;13.88;4.90;;;14.10;95.60;;;;;;6196704;23;20602;-93
2023/07/03 00:30:15;;;;;;;14.95;4.60;;;14.20;95.70;;;;;;6197255;23;20457;-92
2023/07/03 00:32:42;;;;;;;12.00;4.82;;;14.10;95.80;;;;;;6198171;23;20020;-91
2023/07/03 00:35:08;;;;;;;15.77;4.90;;;14.10;96.40;;;;;;6199977;23;20040;-88
2023/07/03 00:37:34;;;;;;;15.75;5.80;;;14.10;96.00;;;;;;6202636;23;20016;-91
2023/07/03 00:40:00;;;;;;;18.98;6.40;;;14.10;95.90;;;;;;6202468;23;20494;-91
2023/07/03 00:42:27;;;;;;;17.50;5.40;;;14.10;96.00;;;;;;6203673;23;20016;-91
2023/07/03 00:44:53;;;;;;;15.75;5.05;;;14.10;96.20;;;;;;6202057;23;20012;-91
2023/07/03 00:47:19;;;;;;;19.08;5.28;;;14.10;96.30;;;;;;6197132;23;20016;-91
2023/07/03 00:49:49;;;;;;;14.57;5.60;;;14.10;96.50;;;;;;6193625;23;20020;-89
2023/07/03 00:52:15;;;;;;;19.75;5.13;;;14.30;96.60;;;;;;6195378;23;20020;-90
2023/07/03 00:54:41;;;;;;;17.05;5.13;;;13.70;96.70;;;;;;6220979;23;20020;-90
2023/07/03 00:57:12;;;;;;;20.75;5.68;;;14.30;96.80;;;;;;6197712;23;20016;-92
2023/07/03 00:59:38;;;;;;;15.00;4.57;;;14.10;97.00;;;;;;6196380;23;20031;-90
2023/07/03 01:02:25;;;;;;;12.93;4.68;;;14.10;98.30;;;;;;6194707;23;20016;-92
2023/07/03 01:05:01;;;;;;;15.35;5.50;;;14.10;97.10;;;;;;6194509;23;20019;-90
2023/07/03 01:07:34;;;;;;;17.80;5.80;;;14.20;97.20;;;;;;6196849;23;20020;-93
2023/07/03 01:10:06;;;;;;;18.75;5.13;;;14.20;97.30;;;;;;6220516;23;20103;-88
2023/07/03 01:12:38;;;;;;;18.27;4.88;;;14.20;97.40;;;;;;6195394;23;20085;-88
2023/07/03 01:15:07;;;;;;;;;;;14.20;97.40;;;;;;6196215;23;20020;-92
2023/07/03 01:17:35;;;;;;;19.63;4.93;;;14.20;97.80;;;;;;6190756;23;19920;-89
2023/07/03 01:20:04;;;;;;;17.75;5.13;;;14.20;97.50;;;;;;6219490;23;20015;-91
2023/07/03 01:22:40;;;;;;;18.83;4.40;;;14.20;97.60;;;;;;6220912;23;20443;-90
2023/07/03 01:25:09;;;;;;;19.05;4.78;;;14.20;97.80;;;;;;6193772;23;20016;-90
2023/07/03 01:27:40;;;;;;;21.02;4.60;;;14.20;97.90;;;;;;6194773;23;20011;-93
2023/07/03 01:30:10;;;;;;;16.77;5.05;;;14.20;98.00;;;;;;6194400;23;20083;-89
2023/07/03 01:32:37;;;;;;;16.90;5.10;;;14.30;98.10;;;;;;6220054;23;20016;-90
2023/07/03 01:35:05;;;;;;;17.88;4.40;;;14.30;98.10;;;;;;6194927;23;20020;-91
2023/07/03 01:37:32;;;;;;;19.10;4.55;;;14.30;98.20;;;;;;6219625;23;20038;-91
2023/07/03 01:40:01;;;;;;;19.35;4.47;;;14.30;98.20;;;;;;6218616;23;20034;-91
2023/07/03 01:42:29;;;;;;;13.60;4.55;;;14.30;98.20;;;;;;6195853;23;20019;-91
2023/07/03 01:44:55;;;;;;;16.50;4.47;;;14.40;98.20;;;;;;6220486;23;20090;-91
2023/07/03 01:47:21;;;;;;;19.20;4.90;;;14.40;98.30;;;;;;6246040;23;20016;-90
2023/07/03 01:49:48;;;;;;;16.90;4.53;;;14.40;98.20;;;;;;6221206;23;20016;-89
2023/07/03 01:52:27;;;;;;;12.70;3.92;;;14.40;98.20;;;;;;6195401;23;20023;-89
2023/07/03 01:55:08;;;;;;;12.48;3.72;;;14.40;98.20;;;;;;6195527;23;20016;-91
2023/07/03 01:57:56;;;;;;;17.13;4.45;;;14.40;98.20;;;;;;6191158;23;20309;-91
2023/07/03 02:00:40;;;;;;;21.63;4.18;;;14.40;98.20;;;;;;6186869;23;20012;-89
2023/07/03 02:03:33;;;;;;;20.08;4.93;;;14.50;98.20;;;;;;6195625;23;20016;-92
2023/07/03 02:06:17;;;;;;;20.65;4.65;;;14.50;98.30;;;;;;6187849;23;20031;-90
2023/07/03 02:08:43;;;;;;;15.57;4.20;;;14.50;98.20;;;;;;6221374;23;20435;-91
2023/07/03 02:11:15;;;;;;;21.33;4.63;;;14.50;98.10;;;;;;6220268;23;20059;-91
2023/07/03 02:13:41;;;;;;;;;;;14.60;98.30;;;;;;6196210;23;20016;-90
2023/07/03 02:16:07;;;;;;;19.23;4.75;;;14.70;98.80;;;;;;6218986;23;19926;-91
2023/07/03 02:18:34;;;;;;;19.88;4.13;;;14.60;98.30;;;;;;6219829;23;20065;-89
2023/07/03 02:21:00;;;;;;;19.17;4.00;;;14.70;98.20;;;;;;6194409;23;20072;-91
2023/07/03 02:23:26;;;;;;;19.08;4.20;;;15.40;98.20;;;;;;6194764;23;20016;-91
2023/07/03 02:25:52;;;;;;;18.70;4.18;;;14.70;98.00;;;;;;6196446;23;20016;-92
2023/07/03 02:28:18;;;;;;;16.58;3.90;;;14.80;98.40;;;;;;6221854;23;20069;-89
2023/07/03 02:30:44;;;;;;;22.73;4.75;;;14.80;98.10;;;;;;6220802;23;20020;-90
2023/07/03 02:33:11;;;;;;;17.30;4.40;;;15.00;98.20;;;;;;6219128;23;20517;-89
2023/07/03 02:35:37;;;;;;;18.42;3.70;;;14.90;98.20;;;;;;6220402;23;20020;-90
2023/07/03 02:38:03;;;;;;;20.45;4.75;;;14.90;98.20;;;;;;6196448;23;20012;-91
2023/07/03 02:40:29;;;;;;;20.75;5.63;;;14.20;98.30;;;;;;6222234;23;20012;-91
2023/07/03 02:42:55;;;;;;;19.67;4.90;;;14.90;98.70;;;;;;6197148;23;20008;-90
2023/07/03 02:45:21;;;;;;;19.23;5.45;;;14.90;99.50;;;;;;6196797;23;20075;-90
2023/07/03 02:47:46;;;;;;;18.48;4.88;;;15.10;99.90;;;;;;6222401;23;20407;-90
2023/07/03 02:50:12;;;;;;;17.75;5.97;;;15.60;99.60;;;;;;6196098;23;20444;-87
2023/07/03 02:52:38;;;;;;;12.13;4.20;;;14.90;99.00;;;;;;6196041;23;20019;-89
2023/07/03 02:55:04;;;;;;;17.13;4.20;;;15.00;99.30;;;;;;6197565;23;20020;-91
2023/07/03 02:57:30;;;;;;;12.23;3.35;;;14.90;99.10;;;;;;6197184;23;20043;-90
2023/07/03 02:59:56;;;;;;;18.48;3.53;;;15.40;99.10;;;;;;6197417;23;20066;-90
2023/07/03 03:02:21;;;;;;;10.30;2.33;;;14.80;99.60;;;;;;6197265;23;20016;-91
2023/07/03 03:04:47;;;;;;;14.32;3.85;;;11.90;97.50;;;;;;6196570;23;20023;-91
2023/07/03 03:07:14;;;;;;;12.55;2.80;;;12.40;98.50;;;;;;6224326;23;20016;-90
2023/07/03 03:09:40;;;;;;;10.63;2.95;;;15.30;97.90;;;;;;6199595;23;20016;-90
2023/07/03 03:12:07;;;;;;;16.35;3.05;;;14.70;98.60;;;;;;6198615;23;20016;-90
2023/07/03 03:14:33;;;;;;;10.70;4.10;;;15.10;98.30;;;;;;6198817;23;20016;-90
2023/07/03 03:16:59;;;;;;;17.33;3.58;;;14.70;98.30;;;;;;6223851;23;20058;-88
2023/07/03 03:19:26;;;;;;;16.85;3.58;;;14.60;98.80;;;;;;6198760;23;20019;-90
2023/07/03 03:21:51;;;;;;;17.70;4.32;;;14.60;98.30;;;;;;6221444;23;20009;-89
2023/07/03 03:24:17;;;;;;;17.40;3.75;;;15.80;99.90;;;;;;6198169;23;20328;-89
2023/07/03 03:26:43;;;;;;;18.58;3.90;;;15.20;99.30;;;;;;6198620;23;20016;-89
2023/07/03 03:29:09;;;;;;;12.40;3.75;;;14.60;99.40;;;;;;6198100;23;20023;-88
2023/07/03 03:31:35;;;;;;;13.10;4.00;;;14.80;99.30;;;;;;6196839;23;20096;-90
2023/07/03 03:34:01;;;;;;;16.83;3.50;;;14.60;99.10;;;;;;6198787;23;20019;-90
2023/07/03 03:36:27;;;;;;;15.30;3.35;;;14.60;98.30;;;;;;6196563;23;20016;-89
2023/07/03 03:38:52;;;;;;;10.07;2.35;;;14.50;98.20;;;;;;6197234;23;20087;-87
2023/07/03 03:41:18;;;;;;;13.90;2.90;;;14.40;98.20;;;;;;6196568;23;20012;-88
2023/07/03 03:43:47;;;;;;;10.55;2.22;;;14.30;98.20;;;;;;6196874;23;20016;-89
2023/07/03 03:46:13;;;;;;;12.57;2.47;;;14.60;98.40;;;;;;6221662;23;20553;-90
2023/07/03 03:48:39;;;;;;;12.90;2.45;;;14.20;98.30;;;;;;6196256;23;20016;-88
2023/07/03 03:51:04;;;;;;;12.02;2.30;;;14.30;98.90;;;;;;6220468;23;20078;-86
2023/07/03 03:53:30;;;;;;;14.35;2.38;;;14.10;98.00;;;;;;6221179;23;20023;-90
2023/07/03 03:55:56;;;;;;;12.07;1.63;;;14.00;97.90;;;;;;6224465;23;20024;-91
2023/07/03 03:58:22;;;;;;;13.75;2.13;;;14.00;97.80;;;;;;6199323;23;20023;-89
2023/07/03 04:00:50;;;;;;;11.45;2.55;;;13.90;98.70;;;;;;6204838;23;20020;-89
2023/07/03 04:03:16;;;;;;;11.90;1.90;;;14.10;98.00;;;;;;6232677;23;20012;-89
2023/07/03 04:05:43;;;;;;;10.98;2.05;;;13.80;98.80;;;;;;6204174;23;20020;-90
2023/07/03 04:08:09;;;;;;;9.50;2.40;;;12.00;97.30;;;;;;6223125;23;20110;-89
2023/07/03 04:10:36;;;;;;;6.82;1.02;;;13.90;97.00;;;;;;6200623;23;20048;-89
2023/07/03 04:13:01;;;;;;;7.90;1.52;;;13.90;96.90;;;;;;6202236;23;20317;-88
2023/07/03 04:15:32;;;;;;;10.52;2.00;;;13.90;96.80;;;;;;6227531;23;20037;-90
2023/07/03 04:17:58;;;;;;;9.20;1.63;;;14.00;96.70;;;;;;6202961;23;20021;-90
2023/07/03 04:20:25;;;;;;;8.70;1.05;;;16.20;97.20;;;;;;6198475;23;20043;-91
2023/07/03 04:22:51;;;;;;;8.98;2.20;;;14.50;96.50;;;;;;6227543;23;20066;-90
2023/07/03 04:25:17;;;;;;;8.77;1.40;;;14.90;96.50;;;;;;6204782;23;20016;-90
2023/07/03 04:27:43;;;;;;;8.02;1.73;;;15.70;95.70;;;;;;6229331;23;20032;-89
2023/07/03 04:30:09;;;;;;;7.05;1.45;;;16.30;94.90;;;;;;6201027;23;20024;-89
2023/07/03 04:32:36;;;;;;;10.95;1.70;;;16.90;94.20;;;;;;6220520;23;20012;-88
2023/07/03 04:35:03;;;;;;;10.63;1.40;;;17.50;93.30;;;;;;6220602;23;20051;-89
2023/07/03 04:37:29;;;;;;;8.18;1.25;;;18.00;92.20;;;;;;6219631;23;20050;-89
2023/07/03 04:39:56;;;;;;;6.47;1.33;;;18.50;91.50;;;;;;6195929;23;20012;-89
2023/07/03 04:42:22;;;;;;;12.35;2.53;;;19.10;90.70;;;;;;6199721;23;20138;-88
2023/07/03 04:44:48;;;;;;;8.18;1.27;;;19.50;89.90;;;;;;6207394;23;20054;-89
2023/07/03 04:47:18;;;;;;;7.82;2.05;;;19.50;88.60;;;;;;6202248;23;20040;-89
2023/07/03 04:49:45;;;;;;;9.43;1.35;;;19.30;87.80;;;;;;6205031;23;20016;-90
2023/07/03 04:52:16;;;;;;;6.53;1.20;;;18.50;88.50;;;;;;6203784;23;20030;-90
2023/07/03 04:54:42;;;;;;;7.57;0.98;;;18.00;89.10;;;;;;6206243;23;20010;-89
2023/07/03 04:57:08;;;;;;;8.18;1.30;;;17.80;89.40;;;;;;6205443;23;20047;-89
2023/07/03 04:59:35;;;;;;;7.43;0.80;;;17.10;89.60;;;;;;6220206;23;20016;-89
2023/07/03 05:02:01;;;;;;;8.70;0.90;;;17.20;90.00;;;;;;6216100;23;20016;-89
2023/07/03 05:04:27;;;;;;;5.55;0.70;;;18.50;90.30;;;;;;6218215;23;20079;-89
2023/07/03 05:06:53;;;;;;;7.65;0.82;;;17.20;89.60;;;;;;6216853;23;20026;-90
2023/07/03 05:09:19;;;;;;;6.53;0.80;;;17.30;90.10;;;;;;6216802;23;20027;-90
2023/07/03 05:11:48;;;;;;;9.30;1.52;;;14.50;88.70;;;;;;6194814;23;20012;-89
2023/07/03 05:14:15;;;;;;;8.05;0.70;;;17.10;89.60;;;;;;6215743;23;20026;-89
2023/07/03 05:16:41;;;;;;;8.93;2.10;;;16.90;89.80;;;;;;6216530;23;20078;-90
2023/07/03 05:19:07;;;;;;;5.28;0.50;;;16.90;90.20;;;;;;6191425;23;20044;-89
2023/07/03 05:21:32;;;;;;;7.95;1.17;;;17.10;89.60;;;;;;6192322;23;20019;-89
2023/07/03 05:23:58;;;;;;;9.80;1.15;;;17.00;89.40;;;;;;6218143;23;20020;-89
2023/07/03 05:26:24;;;;;;;5.88;0.60;;;17.20;89.70;;;;;;6216944;23;20023;-87
2023/07/03 05:28:50;;;;;;;9.15;1.48;;;17.60;88.90;;;;;;6200390;23;20024;-89
2023/07/03 05:31:16;;;;;;;8.68;0.98;;;17.50;88.60;;;;;;6192974;23;20032;-89
2023/07/03 05:33:42;;;;;;;12.07;1.75;;;17.30;88.50;;;;;;6217591;23;20027;-87
2023/07/03 05:36:08;;;;;;;9.00;1.13;;;17.20;88.50;;;;;;6193065;23;20031;-91
2023/07/03 05:38:34;;;;;;;8.25;1.10;;;17.10;88.60;;;;;;6193897;23;20012;-89
2023/07/03 05:41:00;;;;;;;10.07;1.17;;;17.10;88.80;;;;;;6219196;23;20012;-91
2023/07/03 05:43:27;;;;;;;4.90;0.85;;;17.20;88.60;;;;;;6194127;23;20020;-91
2023/07/03 05:45:53;;;;;;;9.18;1.23;;;15.80;87.40;;;;;;6219239;23;20004;-92
2023/07/03 05:48:18;;;;;;;7.55;0.73;;;18.00;88.20;;;;;;6194611;23;20016;-91
2023/07/03 05:50:45;;;;;;;9.57;0.90;;;18.30;87.80;;;;;;6217546;23;20018;-91
2023/07/03 05:53:11;;;;;;;7.70;0.90;;;18.30;87.20;;;;;;6191402;23;20012;-88
2023/07/03 05:55:37;;;;;;;6.78;1.02;;;18.30;86.60;;;;;;6194355;23;20019;-92
2023/07/03 05:58:03;;;;;;;9.25;1.08;;;18.60;87.00;;;;;;6193465;23;20050;-90
2023/07/03 06:00:30;;;;;;;5.95;1.35;;;18.50;86.30;;;;;;6218140;23;20008;-89
2023/07/03 06:02:57;;;;;;;7.63;1.23;;;18.70;85.40;;;;;;6193185;23;20020;-89
2023/07/03 06:05:23;;;;;;;7.35;0.70;;;19.60;84.20;;;;;;6219187;23;20091;-91
2023/07/03 06:07:49;;;;;;;7.07;1.15;;;20.70;82.90;;;;;;6193561;23;20455;-89
2023/07/03 06:10:15;;;;;;;9.40;1.08;;;21.30;81.00;;;;;;6217670;23;20110;-90
2023/07/03 06:12:43;;;;;;;9.55;1.75;;;21.80;78.60;;;;;;6218517;23;20050;-90
2023/07/03 06:15:10;;;;;;;9.63;1.48;;;22.40;77.00;;;;;;6192606;23;20020;-91
2023/07/03 06:17:40;;;;;;;6.40;0.85;;;22.90;74.70;;;;;;6219669;23;20024;-91
2023/07/03 06:20:07;;;;;;;7.82;1.35;;;24.00;73.10;;;;;;6192898;23;20008;-90
2023/07/03 06:22:33;;;;;;;7.68;0.88;;;25.10;70.10;;;;;;6218332;23;20091;-88
2023/07/03 06:24:59;;;;;;;7.30;1.00;;;25.90;67.90;;;;;;6218663;23;20536;-92
2023/07/03 06:27:25;;;;;;;7.35;0.82;;;26.60;67.30;;;;;;6217210;23;20082;-88
2023/07/03 06:29:51;;;;;;;8.32;0.90;;;28.10;67.90;;;;;;6220180;23;20047;-90
2023/07/03 06:32:18;;;;;;;6.15;0.80;;;28.20;66.10;;;;;;6194687;23;20051;-90
2023/07/03 06:34:44;;;;;;;8.73;1.67;;;28.00;63.40;;;;;;6194121;23;20099;-90
2023/07/03 06:37:12;;;;;;;7.53;1.25;;;27.40;66.70;;;;;;6195960;23;20035;-90
2023/07/03 06:39:45;;;;;;;4.75;0.93;;;26.30;65.60;;;;;;6221889;23;20115;-90
2023/07/03 06:42:11;;;;;;;7.38;0.85;;;25.70;66.60;;;;;;6222272;23;20003;-93
2023/07/03 06:44:37;;;;;;;8.70;1.02;;;25.10;68.80;;;;;;6219235;23;20012;-89
2023/07/03 06:47:03;;;;;;;6.15;0.80;;;23.10;68.80;;;;;;6194128;23;20016;-91
2023/07/03 06:49:29;;;;;;;9.80;1.48;;;23.70;69.70;;;;;;6219924;23;20035;-92
2023/07/03 06:51:57;;;;;;;7.20;1.50;;;23.10;70.40;;;;;;6194984;23;20020;-87
2023/07/03 06:54:23;;;;;;;7.05;1.20;;;22.60;68.00;;;;;;6196691;23;20135;-89
2023/07/03 06:56:48;;;;;;;5.95;1.33;;;22.10;73.60;;;;;;6220999;23;20020;-90
2023/07/03 06:59:15;;;;;;;7.78;1.52;;;21.70;75.60;;;;;;6197005;23;20031;-96
2023/07/03 07:01:41;;;;;;;6.72;1.02;;;21.30;82.00;;;;;;6196886;23;20016;-91
2023/07/03 07:04:07;;;;;;;6.30;1.10;;;20.80;77.80;;;;;;6197210;23;20099;-92
2023/07/03 07:06:33;;;;;;;12.05;1.85;;;20.30;73.60;;;;;;6219576;23;20027;-89
2023/07/03 07:09:00;;;;;;;13.23;1.15;;;19.60;79.10;;;;;;6193922;23;20019;-88
2023/07/03 07:11:30;;;;;;;9.45;1.13;;;18.70;81.10;;;;;;6189935;23;20358;-86
2023/07/03 07:14:00;;;;;;;11.20;1.55;;;18.50;86.30;;;;;;6216120;23;20024;-87
2023/07/03 07:16:31;;;;;;;10.05;1.20;;;16.90;89.20;;;;;;6182897;23;20026;-86
2023/07/03 07:19:00;;;;;;;13.07;1.13;;;16.70;91.20;;;;;;6186075;23;20020;-88
2023/07/03 07:21:27;;;;;;;7.25;0.93;;;16.40;92.60;;;;;;6185480;23;20068;-87
2023/07/03 07:24:02;;;;;;;4.60;0.77;;;16.20;93.90;;;;;;6174147;23;20016;-82
2023/07/03 07:26:34;;;;;;;5.05;1.17;;;16.60;95.50;;;;;;6177714;23;20496;-83
2023/07/03 07:29:01;;;;;;;6.57;0.95;;;16.40;95.40;;;;;;6180895;23;20023;-84
2023/07/03 07:31:28;;;;;;;6.97;1.05;;;17.20;95.70;;;;;;6171204;23;20020;-85
2023/07/03 07:33:55;;;;;;;7.25;0.75;;;17.20;95.50;;;;;;6200000;23;20107;-85
2023/07/03 07:36:23;;;;;;;7.85;0.82;;;18.10;94.90;;;;;;6180147;23;20016;-83
2023/07/03 07:38:50;;;;;;;8.77;0.90;;;20.10;94.30;;;;;;6179665;23;20150;-84
2023/07/03 07:41:16;;;;;;;8.48;0.80;;;21.50;92.80;;;;;;6179830;23;20410;-84
2023/07/03 07:43:45;;;;;;;7.28;1.13;;;23.00;91.70;;;;;;6202286;23;20066;-84
2023/07/03 07:46:17;;;;;;;4.57;0.70;;;24.90;89.50;;;;;;6170158;23;20024;-84
2023/07/03 07:48:45;;;;;;;5.45;0.80;;;25.80;83.90;;;;;;6181532;23;20560;-86
2023/07/03 07:51:11;;;;;;;6.55;1.05;;;25.00;83.10;;;;;;6182055;23;20020;-88
2023/07/03 07:53:38;;;;;;;6.57;0.70;;;24.50;81.60;;;;;;6180818;23;20020;-86
2023/07/03 07:56:07;;;;;;;4.72;0.60;;;23.90;80.60;;;;;;6182452;23;20177;-86
2023/07/03 07:58:33;;;;;;;7.28;0.70;;;23.60;80.10;;;;;;6181837;23;20114;-85
2023/07/03 08:00:59;;;;;;;5.45;0.65;;;23.30;79.90;;;;;;6180066;23;20079;-85
2023/07/03 08:03:25;;;;;;;7.00;0.70;;;22.50;79.60;;;;;;6183137;23;20024;-88
2023/07/03 08:06:03;;;;;;;6.15;0.68;;;23.20;79.10;;;;;;6204645;23;20016;-85
2023/07/03 08:08:33;;;;;;;4.57;0.70;;;21.60;78.80;;;;;;6201969;23;20016;-90
2023/07/03 08:11:01;;;;;;;4.80;0.73;;;20.90;79.60;;;;;;6200904;23;20055;-87
2023/07/03 08:13:29;;;;;;;6.30;0.75;;;20.70;82.20;;;;;;6183279;23;20031;-87
2023/07/03 08:15:56;;;;;;;6.25;0.55;;;19.40;84.50;;;;;;6184266;23;20012;-88
2023/07/03 08:18:21;;;;;;;5.20;1.50;;;19.90;86.90;;;;;;6208072;23;20289;-85
2023/07/03 08:20:49;;;;;;;3.35;0.20;;;18.50;90.10;;;;;;6175772;23;20858;-88
2023/07/03 08:23:21;;;;;;;4.90;0.65;;;18.00;90.30;;;;;;6200575;23;20015;-85
2023/07/03 08:25:54;;;;;;;10.57;0.40;;;17.70;90.10;;;;;;6176238;23;20016;-87
2023/07/03 08:28:22;;;;;;;5.55;0.50;;;17.60;91.50;;;;;;6182521;23;20044;-85
2023/07/03 08:30:51;;;;;;;5.60;0.50;;;14.60;91.60;;;;;;6179761;23;20087;-84
2023/07/03 08:33:22;;;;;;;4.50;0.43;;;16.40;93.90;;;;;;6172339;23;20071;-85
2023/07/03 08:35:47;;;;;;;4.70;0.50;;;16.50;93.90;;;;;;6167825;23;20048;-85
2023/07/03 08:38:16;;;;;;;6.00;0.63;;;15.90;94.30;;;;;;6175130;23;20057;-84
2023/07/03 08:40:42;;;;;;;7.25;0.55;;;16.40;94.60;;;;;;6171383;23;20069;-85
2023/07/03 08:43:13;;;;;;;5.32;0.85;;;16.20;95.90;;;;;;6173604;23;20159;-84
2023/07/03 08:45:43;;;;;;;5.32;0.90;;;16.90;96.00;;;;;;6173559;23;20024;-84
2023/07/03 08:48:19;;;;;;;7.05;0.95;;;19.10;96.80;;;;;;6174924;23;20024;-84
2023/07/03 08:50:49;;;;;;;7.97;0.70;;;18.90;95.20;;;;;;6176136;23;20027;-84
2023/07/03 08:53:18;;;;;;;4.90;0.88;;;19.70;94.70;;;;;;6173683;23;20352;-84
2023/07/03 08:55:51;;;;;;;3.63;0.50;;;19.70;94.80;;;;;;6175047;23;20044;-85
2023/07/03 08:58:17;;;;;;;5.03;0.65;;;19.80;94.70;;;;;;6175308;23;20021;-84
2023/07/03 09:01:15;;;;;;;4.90;0.50;;;17.30;95.10;;;;;;6175927;23;20013;-87
2023/07/03 09:04:07;;;;;;;5.25;1.10;;;18.80;92.90;;;;;;6158005;23;20028;-85
2023/07/03 09:06:40;;;;;;;3.60;0.57;;;20.10;93.10;;;;;;6181439;23;20020;-85
2023/07/03 09:09:23;;;;;;;4.03;0.40;;;18.30;93.90;;;;;;6182633;23;20019;-84
2023/07/03 09:11:57;;;;;;;2.90;0.43;;;17.30;93.30;;;;;;6184483;23;20030;-84
2023/07/03 09:14:26;;;;;;;5.15;0.40;;;17.30;93.90;;;;;;6210102;23;20020;-84
2023/07/03 09:16:52;;;;;;;5.38;0.70;;;17.40;93.90;;;;;;6209206;23;20016;-85
2023/07/03 09:19:21;;;;;;;5.53;0.70;;;17.60;94.10;;;;;;6183806;23;20023;-85
2023/07/03 09:21:51;;;;;;;4.25;0.45;;;17.70;93.80;;;;;;6183985;23;20016;-84
2023/07/03 09:24:23;;;;;;;4.90;0.40;;;17.60;93.30;;;;;;6187431;23;20090;-85
2023/07/03 09:27:17;;;;;;;2.85;0.55;;;17.40;93.10;;;;;;6190648;23;20090;-87
2023/07/03 09:29:43;;;;;;;2.90;0.30;;;17.40;93.00;;;;;;6194768;23;20078;-84
2023/07/03 09:32:22;;;;;;;6.38;0.40;;;17.40;92.90;;;;;;6177029;23;20020;-85
2023/07/03 09:34:59;;;;;;;3.20;0.40;;;17.80;93.10;;;;;;6185830;23;20020;-88
2023/07/03 09:37:25;;;;;;;6.22;0.70;;;18.30;93.30;;;;;;6184781;23;20017;-85
2023/07/03 09:39:54;;;;;;;5.40;0.50;;;19.10;92.60;;;;;;6181669;23;20016;-87
2023/07/03 09:42:22;;;;;;;6.20;0.47;;;20.00;92.40;;;;;;6209748;23;20099;-85
2023/07/03 09:44:49;;;;;;;5.38;1.05;;;20.20;91.20;;;;;;6184597;23;20016;-86
2023/07/03 09:47:28;;;;;;;9.70;0.60;;;20.60;91.00;;;;;;6187127;23;20016;-85
2023/07/03 09:50:06;;;;;;;3.70;0.40;;;21.30;89.10;;;;;;6212477;23;21058;-88
2023/07/03 09:52:32;;;;;;;9.63;0.85;;;21.70;89.30;;;;;;6187223;23;20016;-87
2023/07/03 09:55:02;;;;;;;5.65;0.63;;;23.00;89.10;;;;;;6185269;23;20020;-92
2023/07/03 09:57:28;;;;;;;5.20;0.47;;;24.60;86.90;;;;;;6189744;23;20016;-88
2023/07/03 10:00:07;;;;;;;4.75;0.98;;;24.70;82.20;;;;;;6188452;23;20019;-89
2023/07/03 10:02:32;;;;;;;5.45;1.48;;;23.90;81.20;;;;;;6214654;23;20021;-88
2023/07/03 10:04:58;;;;;;;5.97;1.10;;;22.90;84.00;;;;;;6187461;23;20070;-87
2023/07/03 10:07:24;;;;;;;10.13;0.63;;;22.30;85.00;;;;;;6211128;23;20055;-87
2023/07/03 10:09:50;;;;;;;4.47;0.55;;;22.00;84.90;;;;;;6187984;23;20016;-89
2023/07/03 10:12:36;;;;;;;7.68;0.57;;;21.10;84.50;;;;;;6183805;23;20020;-87
2023/07/03 10:15:10;;;;;;;7.43;0.63;;;20.90;84.50;;;;;;6187985;23;20047;-88
2023/07/03 10:17:48;;;;;;;3.13;0.40;;;20.20;85.40;;;;;;6186903;23;20050;-88
2023/07/03 10:20:26;;;;;;;3.88;0.50;;;17.40;85.50;;;;;;6210932;23;20029;-90
2023/07/03 10:22:54;;;;;;;5.38;0.63;;;20.50;88.90;;;;;;6187651;23;20012;-87
2023/07/03 10:25:43;;;;;;;4.70;0.50;;;22.10;90.00;;;;;;6188438;23;20012;-87
2023/07/03 10:28:14;;;;;;;3.85;0.40;;;23.40;88.00;;;;;;6181081;23;20438;-89
2023/07/03 10:30:39;;;;;;;5.73;0.63;;;25.50;87.10;;;;;;6186874;23;20016;-86
2023/07/03 10:33:14;;;;;;;4.90;0.50;;;23.00;86.30;;;;;;6187460;23;20413;-90
2023/07/03 10:35:42;;;;;;;3.92;0.90;;;23.60;83.70;;;;;;6188154;23;20016;-88
2023/07/03 10:38:20;;;;;;;4.72;0.38;;;24.80;82.90;;;;;;6212683;23;20055;-89
2023/07/03 10:40:55;;;;;;;4.57;0.55;;;25.70;78.50;;;;;;6186713;23;20004;-89
2023/07/03 10:43:23;;;;;;;3.58;0.75;;;25.70;78.60;;;;;;6187649;23;20869;-92
2023/07/03 10:45:49;;;;;;;7.43;0.40;;;24.60;72.50;;;;;;6189324;23;20016;-88
2023/07/03 10:48:26;;;;;;;6.05;0.70;;;23.10;70.80;;;;;;6214266;23;20052;-88
2023/07/03 10:51:00;;;;;;;6.70;0.52;;;22.30;70.80;;;;;;6187940;23;20050;-88
2023/07/03 10:53:34;;;;;;;5.18;0.63;;;22.20;73.20;;;;;;6210964;23;20814;-92
2023/07/03 10:56:21;;;;;;;6.80;0.63;;;21.10;75.70;;;;;;6186255;23;20017;-89
2023/07/03 10:59:12;;;;;;;3.08;0.43;;;20.70;78.70;;;;;;6186896;23;20020;-87
2023/07/03 11:01:56;;;;;;;3.20;0.25;;;21.10;80.30;;;;;;6186781;23;20087;-91
2023/07/03 11:04:57;;;;;;;8.55;0.77;;;21.20;81.80;;;;;;6187068;23;20018;-89
2023/07/03 11:07:43;;;;;;;4.25;1.05;;;21.10;82.00;;;;;;6187256;23;20044;-88
2023/07/03 11:10:35;;;;;;;3.88;0.75;;;20.70;81.50;;;;;;6213410;23;20020;-90
2023/07/03 11:13:23;;;;;;;2.08;0.75;;;18.90;80.20;;;;;;6188419;23;20357;-88
2023/07/03 11:16:11;;;;;;;4.35;0.55;;;21.20;80.00;;;;;;6187921;23;20039;-89
2023/07/03 11:19:05;;;;;;;4.30;0.60;;;20.20;80.30;;;;;;6188474;23;20027;-87
2023/07/03 11:22:05;;;;;;;3.72;0.30;;;21.30;77.50;;;;;;6188099;23;20328;-89
2023/07/03 11:24:46;;;;;;;1.85;0.20;;;21.80;77.20;;;;;;6213830;23;20012;-91
2023/07/03 11:27:24;;;;;;;2.95;0.30;;;21.10;75.40;;;;;;6191461;23;20019;-90
2023/07/03 11:29:53;;;;;;;4.88;0.57;;;20.80;75.70;;;;;;6189477;23;20090;-92
2023/07/03 11:32:19;;;;;;;4.25;0.40;;;20.60;75.50;;;;;;6188917;23;20043;-89
2023/07/03 11:34:47;;;;;;;2.60;0.20;;;20.20;76.00;;;;;;6188369;23;20027;-89
2023/07/03 11:37:49;;;;;;;5.45;0.30;;;19.80;77.60;;;;;;6187709;23;20017;-90
2023/07/03 11:40:24;;;;;;;2.90;0.20;;;19.40;76.80;;;;;;6066166;23;20014;-90
2023/07/03 11:43:13;;;;;;;4.25;0.30;;;19.30;76.70;;;;;;6168171;23;20031;-86
2023/07/03 11:45:39;;;;;;;2.38;0.32;;;19.30;78.40;;;;;;6185930;23;20090;-88
2023/07/03 11:48:25;;;;;;;2.92;0.47;;;18.90;81.80;;;;;;6187928;23;20129;-87
2023/07/03 11:51:04;;;;;;;6.03;0.30;;;19.30;78.40;;;;;;6213503;23;20347;-89
2023/07/03 11:53:47;;;;;;;5.95;0.50;;;19.50;78.30;;;;;;6189225;23;20137;-86
2023/07/03 11:56:36;;;;;;;4.25;0.30;;;19.80;78.50;;;;;;6210676;23;20023;-90
2023/07/03 11:59:17;;;;;;;6.85;0.43;;;20.70;79.10;;;;;;6141025;23;20053;-89
2023/07/03 12:01:43;;;;;;;6.23;0.30;;;20.40;78.90;;;;;;6189409;23;20020;-88
2023/07/03 12:04:09;;;;;;;3.78;0.63;;;19.00;81.00;;;;;;6188188;23;20855;-88
2023/07/03 12:06:38;;;;;;;3.25;0.50;;;20.80;82.10;;;;;;6214510;23;20062;-90
2023/07/03 12:09:29;;;;;;;3.65;0.30;;;20.30;82.00;;;;;;6214467;23;20054;-91
2023/07/03 12:12:02;;;;;;;4.13;0.63;;;20.40;82.10;;;;;;6188763;23;20022;-90
2023/07/03 12:14:56;;;;;;;6.28;0.40;;;20.60;81.50;;;;;;6192062;23;20027;-90
2023/07/03 12:17:27;;;;;;;2.58;0.28;;;20.90;79.00;;;;;;6219196;23;20027;-89
2023/07/03 12:20:33;;;;;;;2.90;0.30;;;23.70;80.20;;;;;;6194218;23;20102;-91
2023/07/03 12:22:59;;;;;;;7.30;0.40;;;20.30;77.60;;;;;;6209011;23;20072;-91
2023/07/03 12:25:29;;;;;;;4.80;0.43;;;20.10;78.30;;;;;;6189834;23;20489;-87
2023/07/03 12:28:10;;;;;;;3.92;0.40;;;20.30;78.30;;;;;;6191943;23;20109;-91
2023/07/03 12:30:37;;;;;;;7.13;0.38;;;20.40;77.70;;;;;;6191809;23;20018;-90
2023/07/03 12:33:03;;;;;;;5.30;0.30;;;19.50;78.10;;;;;;6192117;23;20020;-92
2023/07/03 12:35:36;;;;;;;4.70;0.40;;;19.50;79.60;;;;;;6192859;23;20023;-90
2023/07/03 12:38:08;;;;;;;4.35;0.30;;;19.70;79.10;;;;;;6192131;23;20091;-89
2023/07/03 12:40:41;;;;;;;6.20;0.30;;;19.60;79.60;;;;;;6192921;23;20026;-92
2023/07/03 12:43:10;;;;;;;3.15;0.38;;;19.20;78.80;;;;;;6191900;23;20023;-90
2023/07/03 12:45:36;;;;;;;5.30;1.05;;;19.40;79.10;;;;;;6191949;23;20018;-89
2023/07/03 12:48:08;;;;;;;5.35;0.50;;;17.90;80.60;;;;;;6192078;23;20016;-92
2023/07/03 12:50:45;;;;;;;4.00;0.52;;;19.40;78.50;;;;;;6216177;23;20016;-88
2023/07/03 12:53:11;;;;;;;5.85;0.63;;;19.20;78.10;;;;;;6189126;23;20023;-87
2023/07/03 12:55:38;;;;;;;4.03;0.30;;;19.40;78.80;;;;;;6190373;23;20480;-95
2023/07/03 12:58:06;;;;;;;1.67;0.22;;;19.60;78.50;;;;;;6189809;23;20091;-89